Hawaii METAR Reports

 


Warning: A non-numeric value encountered in /home/dwayneya/public_html/wx/get-metar-conditions-inc.php on line 1014
PHOG - Kahului, Hawaii, USA
Distance from station: WNW 8mi, 13km
Updated: Wed, 01-Feb-2023 8:54am HST
Clear
Clear
 Wind from S
Wind: S 6 mph , 9 km/h
Temperature: 73°F , 23°C
Dew Point: 70°F , 21°C
Humidity: 89%
Barometer: 30.00 inHg , 1015.9 hPa
Clouds: Clear
Visibility: 10 miles , 16 km
2023/02/01 18:54 PHOG 011854Z 19005KT 10SM CLR 23/21 A3000 RMK AO2 SLP162 T02330211 $
PHJH - Lahaina/West Mau, Hawaii, USA
Distance from station: WNW 24mi, 39km
Updated: Thu, 26-Jan-2023 6:05pm HST
NOT Current
Light drizzle, Partly cloudy
Light drizzle, Partly cloudy
 Wind from NNE
Wind: NNE 13 mph , 20 km/h, Gust: 20 mph , 31 km/h
Barometer: 30.01 inHg , 1016.3 hPa
Summary: Light Drizzle
Clouds: Partly Cloudy
Visibility: S miles , 0 km
Cloud details: Partly Cloudy 1400 ft
Partly Cloudy 2200 ft
Partly Cloudy 3000 ft
2023/01/27 04:05 PHJH 270405Z AUTO 02011G17KT SSM -DZ SCT014 SCT022 SCT030 A3001
 
PHNY - Lanai City Airpo, Hawaii, USA
Distance from station: W 40mi, 65km
Updated: Wed, 01-Feb-2023 9:19am HST
Few Clouds
Few Clouds
 Wind from calm
Wind: Calm
Temperature: 70°F , 21°C
Dew Point: 68°F , 20°C
Humidity: 94%
Barometer: 30.07 inHg , 1018.3 hPa
Clouds: Few Clouds
Visibility: 10 miles , 16 km
Cloud details: Few Clouds 500 ft
2023/02/01 19:19 PHNY 011919Z AUTO 00000KT 10SM FEW005 21/20 A3007 RMK AO2
PHMK - Molokai, Hawaii, USA
Distance from station: WNW 55mi, 88km
Updated: Wed, 01-Feb-2023 8:54am HST
Clear
Clear
 Wind from calm
Wind: Calm
Temperature: 72°F , 22°C
Dew Point: 70°F , 21°C
Humidity: 94%
Barometer: 30.02 inHg , 1016.6 hPa
Clouds: Clear
Visibility: 10 miles , 16 km
2023/02/01 18:54 PHMK 011854Z 00000KT 10SM CLR 22/21 A3002
 
PHKO - Kailua/Kona, Hawaii, USA
Distance from station: SSE 79mi, 128km
Updated: Wed, 01-Feb-2023 8:53am HST
Partly Cloudy
Partly Cloudy
 Wind from N
Wind: N 10 mph , 17 km/h
Temperature: 79°F , 26°C
Dew Point: 70°F , 21°C
Humidity: 74%
Barometer: 30.00 inHg , 1015.9 hPa
Clouds: Partly Cloudy
Visibility: 10 miles , 16 km
Cloud details: Partly Cloudy 10000 ft
2023/02/01 18:53 PHKO 011853Z 01009KT 10SM SCT100 26/21 A3000 RMK AO2 SLP157 T02560206
PHSF - Bradshaw Aaf/Haw, Hawaii, USA
Distance from station: SE 90mi, 145km
Updated: Wed, 01-Feb-2023 8:55am HST
Clear
Clear
 Wind from calm
Wind: Calm
Temperature: 59°F , 15°C
Dew Point: 46°F , 8°C
Humidity: 63%
Barometer: 30.35 inHg , 1027.8 hPa
Clouds: Clear
Visibility: 10 miles , 16 km
2023/02/01 18:55 PHSF 011855Z AUTO 00000KT 10SM CLR 15/08 A3035 RMK AO2 SLP169 T01530076 $
 
PHNG - Kaneohe Mcas, Hawaii, USA
Distance from station: WNW 102mi, 164km
Updated: Wed, 01-Feb-2023 8:57am HST
Mostly Cloudy
Mostly Cloudy
 Wind from NW
Wind: NW 3 mph , 6 km/h
Temperature: 73°F , 23°C
Dew Point: 70°F , 21°C
Humidity: 89%
Barometer: 29.98 inHg , 1015.2 hPa
Clouds: Mostly Cloudy
Visibility: 10 miles , 16 km
Cloud details: Mostly Cloudy 4000 ft
2023/02/01 18:57 PHNG 011857Z 31003KT 10SM BKN040 23/21 A2998 RMK AO2 SLP148 T02330211
PHNL - Honolulu, Hawaii, USA
Distance from station: WNW 108mi, 174km
Updated: Wed, 01-Feb-2023 8:53am HST
Mostly Cloudy
Mostly Cloudy
 Wind from NNW
Wind: NNW 6 mph , 9 km/h
Temperature: 75°F , 24°C
Dew Point: 70°F , 21°C
Humidity: 83%
Barometer: 30.01 inHg , 1016.3 hPa
Clouds: Mostly Cloudy
Visibility: 10 miles , 16 km
Cloud details: Few Clouds 2500 ft
Few Clouds 3500 ft
Mostly Cloudy 20000 ft
2023/02/01 18:53 PHNL 011853Z 34005KT 10SM FEW025 FEW035 BKN200 24/21 A3001 RMK AO2 SLP160 T02390206 $
 
PHTO - Hilo, Hawaii, USA
Distance from station: SE 114mi, 183km
Updated: Wed, 01-Feb-2023 8:53am HST
Clear
Clear
 Wind from SW
Wind: SW 3 mph , 6 km/h
Temperature: 73°F , 23°C
Dew Point: 63°F , 17°C
Humidity: 69%
Barometer: 30.01 inHg , 1016.3 hPa
Clouds: Clear
Visibility: 10 miles , 16 km
2023/02/01 18:53 PHTO 011853Z 23003KT 10SM CLR 23/17 A3001 RMK AO2 SLP160 T02330172
PHJR - Kalaeloa, Hawaii, USA
Distance from station: WNW 117mi, 189km
Updated: Wed, 01-Feb-2023 8:53am HST
Clear
Clear
 Wind from N
Wind: N 3 mph , 6 km/h
Temperature: 72°F , 22°C
Dew Point: 66°F , 19°C
Humidity: 83%
Barometer: 30.02 inHg , 1016.6 hPa
Clouds: Clear
Visibility: 10 miles , 16 km
2023/02/01 18:53 PHJR 011853Z 36003KT 10SM CLR 22/19 A3002 RMK AO2 SLP171 T02220189
 
PHHI - Wheeler Afb/Oahu, Hawaii, USA
Distance from station: WNW 120mi, 193km
Updated: Wed, 01-Feb-2023 8:55am HST
Clear
Clear
 Wind from calm
Wind: Calm
Temperature: 68°F , 20°C
Dew Point: 59°F , 15°C
Humidity: 73%
Barometer: 30.03 inHg , 1016.9 hPa
Clouds: Clear
Visibility: 10 miles , 16 km
2023/02/01 18:55 PHHI 011855Z AUTO 00000KT 10SM CLR 20/15 A3003 RMK AO2 SLP163 T02020154 $
PHLI - Lihue/Kauai Is, Hawaii, USA
Distance from station: WNW 209mi, 336km
Updated: Wed, 01-Feb-2023 8:53am HST
Clear
Clear
 Wind from WNW
Wind: WNW 6 mph , 9 km/h
Temperature: 73°F , 23°C
Dew Point: 68°F , 20°C
Humidity: 83%
Barometer: 30.02 inHg , 1016.6 hPa
Clouds: Clear
Visibility: 10 miles , 16 km
2023/02/01 18:53 PHLI 011853Z 29005KT 10SM CLR 23/20 A3002 RMK AO2 SLP164 T02280200
 
PHBK - Barking Sands/Ka, Hawaii, USA
Distance from station: WNW 237mi, 382km
Updated: Wed, 01-Feb-2023 8:51am HST
Clear
Clear
 Wind from calm
Wind: Calm
Barometer: 29.99 inHg , 1015.6 hPa
Clouds: Clear
Visibility: 10 miles , 16 km
2023/02/01 18:51 PHBK 011851Z AUTO 00000KT 10SM CLR A2999 RMK AO2 SLP159